Airports Albania Tirana International Airport Mother Teresa

Tirana International Airport Mother Teresa (LATI / TIA)

Facts about Tirana International Airport Mother Teresa

Name Tirana International Airport Mother Teresa
City Tirana
Country Albania
ICAO code LATI
IATA code TIA
Elevation 38.4048 meters (126 feet)

Weather

METAR

Metar data retrieved Friday, 19 July 2024 at 23:25 UTC (19 minutes ago)

LATI 192320Z 14003KT CAVOK 26/21 Q1010 NOSIG

Live traffic

Navigraph Charts (account required)